.sea Genius — PWAZ — position and weather

sailwx.info

Track history (hours):
 
Tides and Currents Weather Stations Pressure Air Temp Water Temp Dewpoint Dewpoint Depression Visibility Wind Speed Wind Dir Waves Ship Positions

.sea Genius

Last reported at 2018-Mar-23 15:58 UTC. Time now 2018-May-25 14:27 UTC.
Position S 05°07' E 011°36'.
Warning: this ship's position is months out of date.

Length 91 m; draft 4.5 m.

Type: Military. MMSI: 710493000.

Date/timePositionNaut miles runAvg speedWind from/ knotsBaromVisibWave heightAir tempDewpointWater temp
2018-Mar-23 15:58S 05°07' E 011°36'0 0.4
2018-Mar-23 15:24S 05°07' E 011°36'0 0.5
2018-Mar-23 14:55S 05°07' E 011°36'0 0.5
2018-Mar-23 14:20S 05°07' E 011°36'0 0.1
2018-Mar-23 13:59S 05°07' E 011°36'1 0.9
2018-Mar-23 13:18S 05°07' E 011°36'1 3.5
2018-Mar-23 12:58S 05°06' E 011°36'4 4.1
2018-Mar-23 12:00S 05°05' E 011°39'5 8.7
2018-Mar-23 11:26S 05°04' E 011°34'4 8.9
2018-Mar-23 11:00S 05°03' E 011°31'7 1.4
2018-Mar-23 06:07S 05°09' E 011°27'1 9.6
2018-Mar-23 06:00S 05°09' E 011°26'5 9.7
2018-Mar-23 05:30S 05°10' E 011°21'4 8.5
2018-Mar-23 05:00S 05°13' E 011°17'4 8.2
2018-Mar-23 04:28S 05°17' E 011°17'4 8.5
2018-Mar-23 04:00S 05°20' E 011°14'4 8.4
2018-Mar-23 03:30S 05°23' E 011°12'4 8.6
2018-Mar-23 03:00S 05°27' E 011°09'4 8.7
2018-Mar-23 02:30S 05°30' E 011°06'  
Track history (hours):
 
Tides and Currents Weather Stations Pressure Air Temp Water Temp Dewpoint Dewpoint Depression Visibility Wind Speed Wind Dir Waves Ship Positions

.sea Genius

Last reported at 2018-Mar-23 15:58 UTC. Time now 2018-May-25 14:27 UTC.
Position S 05°07' E 011°36'.
Warning: this ship's position is months out of date.

Length 91 m; draft 4.5 m.

Type: Military. MMSI: 710493000.

Date/timePositionNaut miles runAvg speedWind from/ knotsBaromVisibWave heightAir tempDewpointWater temp
2018-Mar-23 15:58S 05°07' E 011°36'0 0.4
2018-Mar-23 15:24S 05°07' E 011°36'0 0.5
2018-Mar-23 14:55S 05°07' E 011°36'0 0.5
2018-Mar-23 14:20S 05°07' E 011°36'0 0.1
2018-Mar-23 13:59S 05°07' E 011°36'1 0.9
2018-Mar-23 13:18S 05°07' E 011°36'1 3.5
2018-Mar-23 12:58S 05°06' E 011°36'4 4.1
2018-Mar-23 12:00S 05°05' E 011°39'5 8.7
2018-Mar-23 11:26S 05°04' E 011°34'4 8.9
2018-Mar-23 11:00S 05°03' E 011°31'7 1.4
2018-Mar-23 06:07S 05°09' E 011°27'1 9.6
2018-Mar-23 06:00S 05°09' E 011°26'5 9.7
2018-Mar-23 05:30S 05°10' E 011°21'4 8.5
2018-Mar-23 05:00S 05°13' E 011°17'4 8.2
2018-Mar-23 04:28S 05°17' E 011°17'4 8.5
2018-Mar-23 04:00S 05°20' E 011°14'4 8.4
2018-Mar-23 03:30S 05°23' E 011°12'4 8.6
2018-Mar-23 03:00S 05°27' E 011°09'4 8.7
2018-Mar-23 02:30S 05°30' E 011°06'  

Dump ship's entire track history